createdAt,value
2022-10-06T00:00:06.012Z,27.75
2022-10-06T00:03:28.232Z,23.25
2022-10-06T00:06:30.169Z,22.00
2022-10-06T00:09:32.636Z,26.00
2022-10-06T00:12:42.745Z,25.00
2022-10-06T00:15:45.008Z,26.75
2022-10-06T00:18:47.443Z,22.00
2022-10-06T00:21:49.723Z,22.00
2022-10-06T00:24:51.750Z,22.50
2022-10-06T00:27:54.827Z,21.25
2022-10-06T00:30:56.935Z,22.25
2022-10-06T00:33:59.127Z,24.50
2022-10-06T00:37:01.147Z,27.00
2022-10-06T00:40:09.176Z,24.25
2022-10-06T00:43:39.953Z,25.00
2022-10-06T00:46:51.019Z,24.50
2022-10-06T00:49:55.119Z,24.25
2022-10-06T00:52:57.854Z,17.25
2022-10-06T00:56:00.128Z,23.75
2022-10-06T00:59:02.366Z,23.00
2022-10-06T01:02:21.030Z,22.50
2022-10-06T01:05:28.618Z,27.25
2022-10-06T01:08:32.026Z,19.25
2022-10-06T01:11:36.220Z,24.75
2022-10-06T01:14:39.324Z,23.00
2022-10-06T01:17:59.178Z,23.25
2022-10-06T01:21:07.466Z,26.25
2022-10-06T01:24:09.991Z,21.00
2022-10-06T01:27:13.427Z,22.00
2022-10-06T01:30:17.842Z,20.25
2022-10-06T01:33:21.335Z,23.00
2022-10-06T01:36:24.377Z,28.50
2022-10-06T01:39:26.992Z,23.50
2022-10-06T01:42:32.229Z,27.25
2022-10-06T01:45:34.620Z,24.75
2022-10-06T01:48:37.130Z,21.50
2022-10-06T01:51:39.104Z,26.00
2022-10-06T01:54:41.347Z,21.25
2022-10-06T01:57:43.744Z,24.50
2022-10-06T02:00:47.860Z,20.75
2022-10-06T02:03:50.105Z,23.50
2022-10-06T02:06:55.385Z,20.75
2022-10-06T02:09:57.460Z,21.25
2022-10-06T02:12:59.827Z,25.50
2022-10-06T02:16:02.409Z,19.00
2022-10-06T02:19:04.700Z,23.25
2022-10-06T02:22:06.713Z,17.50
2022-10-06T02:25:09.439Z,21.25
2022-10-06T02:28:12.360Z,25.75
2022-10-06T02:31:15.006Z,17.00
2022-10-06T02:34:17.295Z,19.00
2022-10-06T02:37:19.664Z,21.00
2022-10-06T02:40:22.061Z,20.25
2022-10-06T02:43:24.601Z,20.25
2022-10-06T02:46:27.008Z,22.25
2022-10-06T02:49:30.018Z,24.50
2022-10-06T02:52:34.611Z,24.75
2022-10-06T02:55:36.982Z,17.25
2022-10-06T02:58:42.989Z,22.50
2022-10-06T03:01:48.820Z,18.50
2022-10-06T03:04:53.234Z,22.00
2022-10-06T03:07:55.798Z,26.25
2022-10-06T03:11:02.566Z,21.00
2022-10-06T03:14:05.585Z,20.50
2022-10-06T03:17:11.158Z,22.00
2022-10-06T03:20:20.214Z,18.00
2022-10-06T03:23:22.341Z,20.00
2022-10-06T03:26:33.769Z,19.50
2022-10-06T03:29:35.915Z,20.00
2022-10-06T03:32:39.420Z,22.50
2022-10-06T03:35:43.768Z,16.25
2022-10-06T03:38:46.510Z,21.00
2022-10-06T03:41:48.729Z,19.50
2022-10-06T03:44:50.949Z,22.75
2022-10-06T03:47:55.454Z,17.25
2022-10-06T03:50:59.602Z,17.25
2022-10-06T03:54:03.139Z,20.50
2022-10-06T03:57:07.464Z,24.25
2022-10-06T04:00:12.490Z,18.50
2022-10-06T04:03:19.541Z,17.00
2022-10-06T04:06:22.950Z,19.50
2022-10-06T04:09:25.281Z,20.75
2022-10-06T04:12:27.428Z,16.75
2022-10-06T04:15:31.242Z,20.00
2022-10-06T04:18:33.727Z,18.00
2022-10-06T04:21:37.217Z,20.00
2022-10-06T04:24:41.373Z,20.00
2022-10-06T04:27:45.187Z,13.50
2022-10-06T04:30:57.662Z,21.50
2022-10-06T04:34:01.341Z,16.25
2022-10-06T04:37:04.608Z,18.25
2022-10-06T04:40:08.332Z,19.00
2022-10-06T04:43:11.883Z,22.00
2022-10-06T04:46:38.000Z,22.25
2022-10-06T04:49:37.461Z,21.50
2022-10-06T04:52:40.394Z,17.25
2022-10-06T04:55:42.420Z,18.50
2022-10-06T04:58:48.178Z,20.25
2022-10-06T05:01:51.147Z,19.50
2022-10-06T05:04:53.620Z,18.25
2022-10-06T05:07:57.973Z,21.50
2022-10-06T05:11:06.280Z,26.75
2022-10-06T05:14:08.581Z,27.25
2022-10-06T05:17:14.114Z,22.50
2022-10-06T05:20:16.551Z,22.75
2022-10-06T05:23:19.069Z,22.50
2022-10-06T05:26:24.680Z,18.25
2022-10-06T05:29:28.772Z,21.75
2022-10-06T05:32:35.807Z,18.50
2022-10-06T05:35:39.108Z,21.75
2022-10-06T05:38:42.267Z,25.00
2022-10-06T05:41:44.707Z,24.00
2022-10-06T05:44:48.492Z,20.25
2022-10-06T05:47:51.965Z,21.75
2022-10-06T05:51:02.408Z,17.25
2022-10-06T05:54:05.703Z,20.75
2022-10-06T05:57:08.580Z,24.00
2022-10-06T06:00:11.604Z,22.75
2022-10-06T06:03:14.978Z,20.50
2022-10-06T06:06:39.232Z,21.75
2022-10-06T06:09:45.144Z,19.00
2022-10-06T06:12:47.851Z,19.75
2022-10-06T06:16:13.909Z,21.25
2022-10-06T06:19:16.688Z,18.75
2022-10-06T06:22:20.790Z,22.25
2022-10-06T06:25:25.136Z,18.75
2022-10-06T06:28:31.394Z,20.75
2022-10-06T06:31:36.422Z,23.00
2022-10-06T06:34:38.510Z,23.75
2022-10-06T06:37:42.690Z,20.50
2022-10-06T06:40:44.696Z,25.75
2022-10-06T06:43:50.075Z,17.00
2022-10-06T06:47:04.754Z,25.25
2022-10-06T06:50:10.516Z,18.50
2022-10-06T06:53:16.216Z,19.50
2022-10-06T06:56:23.899Z,18.25
2022-10-06T06:59:26.169Z,18.50
2022-10-06T07:02:30.882Z,19.75
2022-10-06T07:05:33.736Z,19.00
2022-10-06T07:08:39.391Z,22.50
2022-10-06T07:11:41.449Z,19.25
2022-10-06T07:15:05.742Z,21.25
2022-10-06T07:18:36.656Z,21.75
2022-10-06T07:21:59.356Z,16.00
2022-10-06T07:25:08.361Z,15.75
2022-10-06T07:28:17.244Z,20.00
2022-10-06T07:31:19.960Z,20.50
2022-10-06T07:34:23.465Z,19.00
2022-10-06T07:37:26.037Z,17.00
2022-10-06T07:40:28.740Z,17.75
2022-10-06T07:43:31.004Z,17.50
2022-10-06T07:46:34.763Z,16.00
2022-10-06T07:49:56.163Z,15.25
2022-10-06T07:53:08.620Z,21.00
2022-10-06T07:56:15.851Z,17.25
2022-10-06T07:59:23.077Z,19.50
2022-10-06T08:02:30.186Z,17.25
2022-10-06T08:05:35.279Z,14.00
2022-10-06T08:08:37.929Z,18.50
2022-10-06T08:11:40.636Z,13.75
2022-10-06T08:14:42.860Z,18.75
2022-10-06T08:17:45.432Z,15.00
2022-10-06T08:20:47.613Z,19.25
2022-10-06T08:23:51.107Z,17.75
2022-10-06T08:26:53.244Z,13.75
2022-10-06T08:29:55.985Z,15.25
2022-10-06T08:32:58.504Z,14.25
2022-10-06T08:36:28.311Z,15.75
2022-10-06T08:39:32.933Z,16.50
2022-10-06T08:43:02.378Z,11.25
2022-10-06T08:46:04.808Z,11.50
2022-10-06T08:49:18.115Z,13.25
2022-10-06T08:52:34.271Z,13.50
2022-10-06T08:55:47.836Z,14.50
2022-10-06T08:59:04.186Z,15.25
2022-10-06T09:02:32.438Z,14.25
2022-10-06T09:05:35.050Z,14.50
2022-10-06T09:08:54.106Z,14.75
2022-10-06T09:12:06.831Z,14.75
2022-10-06T09:15:15.009Z,16.25
2022-10-06T09:18:20.076Z,18.25
2022-10-06T09:21:39.302Z,18.25
2022-10-06T09:24:49.507Z,16.25
2022-10-06T09:27:58.619Z,14.50
2022-10-06T09:31:04.138Z,18.00
2022-10-06T09:34:45.651Z,18.50
2022-10-06T09:38:08.150Z,15.00
2022-10-06T09:41:12.083Z,15.25
2022-10-06T09:44:25.300Z,13.25
2022-10-06T09:47:34.758Z,17.00
2022-10-06T09:50:36.802Z,19.67
2022-10-06T09:53:39.704Z,13.67
2022-10-06T09:56:43.254Z,15.00
2022-10-06T09:59:46.989Z,18.67
2022-10-06T10:03:05.742Z,12.33
2022-10-06T10:06:09.136Z,16.33
2022-10-06T10:09:21.326Z,12.33
2022-10-06T10:12:29.917Z,15.33
2022-10-06T10:15:54.450Z,14.00
2022-10-06T10:18:57.182Z,15.67
2022-10-06T10:22:00.117Z,15.00
2022-10-06T10:25:21.459Z,17.33
2022-10-06T10:28:42.040Z,13.67
2022-10-06T10:32:21.660Z,15.67
2022-10-06T10:35:30.944Z,12.00
2022-10-06T10:38:40.997Z,14.00
2022-10-06T10:41:47.912Z,12.00
2022-10-06T10:44:57.730Z,12.67
2022-10-06T10:48:13.737Z,11.33
2022-10-06T10:51:25.110Z,11.00
2022-10-06T10:54:53.303Z,12.00
2022-10-06T10:57:59.510Z,12.33
2022-10-06T11:01:26.263Z,12.00
2022-10-06T11:04:28.709Z,11.33
2022-10-06T11:07:55.792Z,11.33
2022-10-06T11:11:00.683Z,12.33
2022-10-06T11:14:08.389Z,12.00
2022-10-06T11:17:25.088Z,10.00
2022-10-06T11:20:50.831Z,9.00
2022-10-06T11:24:20.472Z,10.00
2022-10-06T11:28:02.052Z,10.33
2022-10-06T11:31:23.193Z,10.00
2022-10-06T11:34:25.742Z,7.00
2022-10-06T11:37:41.008Z,10.00
2022-10-06T11:41:09.900Z,9.00
2022-10-06T11:44:15.854Z,8.67
2022-10-06T11:47:34.988Z,9.67
2022-10-06T11:50:41.851Z,9.33
2022-10-06T11:53:44.915Z,8.00
2022-10-06T11:56:48.377Z,7.00
2022-10-06T11:59:55.277Z,6.00
2022-10-06T12:03:35.848Z,7.00
2022-10-06T12:06:46.938Z,8.00
2022-10-06T12:09:52.299Z,9.33
2022-10-06T12:13:31.808Z,8.67
2022-10-06T12:20:49.624Z,10.00
2022-10-06T12:24:24.549Z,8.67
2022-10-06T12:27:53.684Z,10.00
2022-10-06T12:31:14.569Z,8.00
2022-10-06T12:35:03.353Z,7.67
2022-10-06T12:38:26.567Z,9.67
2022-10-06T12:42:05.977Z,10.00
2022-10-06T12:45:16.866Z,7.00
2022-10-06T12:48:28.261Z,10.33
2022-10-06T12:51:42.140Z,11.33
2022-10-06T12:54:58.935Z,9.67
2022-10-06T12:58:01.841Z,9.00
2022-10-06T13:01:12.262Z,11.00
2022-10-06T13:04:41.310Z,10.00
2022-10-06T13:08:03.205Z,9.33
2022-10-06T13:11:28.098Z,8.00
2022-10-06T13:14:30.104Z,7.33
2022-10-06T13:17:32.323Z,7.00
2022-10-06T13:20:40.117Z,7.67
2022-10-06T13:23:43.252Z,9.00
2022-10-06T13:26:45.846Z,8.00
2022-10-06T13:29:48.387Z,11.00
2022-10-06T13:32:54.466Z,8.00
2022-10-06T13:35:58.019Z,7.33
2022-10-06T13:39:00.610Z,9.67
2022-10-06T13:42:08.316Z,8.67
2022-10-06T13:45:14.461Z,9.33
2022-10-06T13:48:20.827Z,7.33
2022-10-06T13:51:25.750Z,8.33
2022-10-06T13:55:01.380Z,8.00
2022-10-06T13:58:06.813Z,9.00
2022-10-06T14:01:12.269Z,10.00
2022-10-06T14:04:17.121Z,9.67
2022-10-06T14:07:19.335Z,9.67
2022-10-06T14:13:32.897Z,8.00
2022-10-06T14:16:34.987Z,8.33
2022-10-06T14:19:40.699Z,8.00
2022-10-06T14:22:42.738Z,9.33
2022-10-06T14:25:44.964Z,7.67
2022-10-06T14:28:53.022Z,9.00
2022-10-06T14:31:55.293Z,5.00
2022-10-06T14:34:57.338Z,6.00
2022-10-06T14:37:59.703Z,5.33
2022-10-06T14:41:02.994Z,5.67
2022-10-06T14:44:08.829Z,6.00
2022-10-06T14:47:11.062Z,7.00
2022-10-06T14:50:13.538Z,6.00
2022-10-06T14:53:17.176Z,7.00
2022-10-06T14:56:19.780Z,6.00
2022-10-06T14:59:21.926Z,6.33
2022-10-06T15:02:24.173Z,6.00
2022-10-06T15:05:26.436Z,6.00
2022-10-06T15:08:30.955Z,6.00
2022-10-06T15:11:33.474Z,5.67
2022-10-06T15:14:39.745Z,5.67
2022-10-06T15:17:42.354Z,4.00
2022-10-06T15:20:47.460Z,7.00
2022-10-06T15:23:55.579Z,6.00
2022-10-06T15:27:19.186Z,4.00
2022-10-06T15:30:23.302Z,4.00
2022-10-06T15:33:38.606Z,5.00
2022-10-06T15:36:43.761Z,5.25
2022-10-06T15:39:46.866Z,5.00
2022-10-06T15:42:50.071Z,3.75
2022-10-06T15:45:55.451Z,7.25
2022-10-06T15:49:01.088Z,4.25
2022-10-06T15:52:05.060Z,7.75
2022-10-06T15:55:10.549Z,6.50
2022-10-06T15:58:12.942Z,3.75
2022-10-06T16:01:34.909Z,6.50
2022-10-06T16:04:38.820Z,7.25
2022-10-06T16:07:40.838Z,6.00
2022-10-06T16:10:49.672Z,8.50
2022-10-06T16:13:52.411Z,5.50
2022-10-06T16:20:15.246Z,5.75
2022-10-06T16:23:17.616Z,4.50
2022-10-06T16:26:20.464Z,6.00
2022-10-06T16:29:22.805Z,6.25
2022-10-06T16:32:24.903Z,6.75
2022-10-06T16:35:27.221Z,5.75
2022-10-06T16:38:29.231Z,5.00
2022-10-06T16:41:31.528Z,5.50
2022-10-06T16:44:33.879Z,6.75
2022-10-06T16:47:36.009Z,5.50
2022-10-06T16:50:37.978Z,5.75
2022-10-06T16:53:45.919Z,6.00
2022-10-06T16:56:52.095Z,7.75
2022-10-06T16:59:54.461Z,7.50
2022-10-06T17:02:56.577Z,9.00
2022-10-06T17:06:06.213Z,5.25
2022-10-06T17:09:14.251Z,11.00
2022-10-06T17:12:16.638Z,9.25
2022-10-06T17:15:18.951Z,7.50
2022-10-06T17:18:21.345Z,8.00
2022-10-06T17:21:44.422Z,9.50
2022-10-06T17:24:46.155Z,9.00
2022-10-06T17:27:48.511Z,8.50
2022-10-06T17:30:59.155Z,11.25
2022-10-06T17:34:12.188Z,9.00
2022-10-06T17:37:14.713Z,13.00
2022-10-06T17:40:16.792Z,10.50
2022-10-06T17:43:20.760Z,10.75
2022-10-06T17:46:23.164Z,15.00
2022-10-06T17:49:27.140Z,7.75
2022-10-06T17:52:30.503Z,8.00
2022-10-06T17:55:36.108Z,10.75
2022-10-06T17:58:39.973Z,14.75
2022-10-06T18:01:44.404Z,9.25
2022-10-06T18:04:49.934Z,9.50
2022-10-06T18:07:52.275Z,12.50
2022-10-06T18:11:13.019Z,11.50
2022-10-06T18:14:17.804Z,14.25
2022-10-06T18:17:20.603Z,15.75
2022-10-06T18:20:23.040Z,14.75
2022-10-06T18:23:25.943Z,11.25
2022-10-06T18:26:28.321Z,12.75
2022-10-06T18:29:35.448Z,16.00
2022-10-06T18:34:46.795Z,15.50
2022-10-06T18:36:12.212Z,12.00
2022-10-06T18:39:14.882Z,14.50
2022-10-06T18:42:16.907Z,17.50
2022-10-06T18:45:39.524Z,20.75
2022-10-06T18:49:00.199Z,24.50
2022-10-06T18:52:02.471Z,51.25
2022-10-06T18:55:04.975Z,37.25
2022-10-06T18:58:07.678Z,29.50
2022-10-06T19:01:10.802Z,27.25
2022-10-06T19:04:15.323Z,38.50
2022-10-06T19:07:17.315Z,38.00
2022-10-06T19:10:19.606Z,44.50
2022-10-06T19:13:22.512Z,35.00
2022-10-06T19:16:25.074Z,45.75
2022-10-06T19:19:28.141Z,48.75
2022-10-06T19:22:31.263Z,31.75
2022-10-06T19:25:33.277Z,38.25
2022-10-06T19:28:36.517Z,40.50
2022-10-06T19:31:41.886Z,32.50
2022-10-06T19:34:44.893Z,45.00
2022-10-06T19:37:47.295Z,56.00
2022-10-06T19:40:49.941Z,54.33
2022-10-06T19:43:53.147Z,60.00
2022-10-06T19:46:55.812Z,54.75
2022-10-06T19:50:02.055Z,65.00
2022-10-06T19:53:06.307Z,66.00
2022-10-06T19:56:08.553Z,59.67
2022-10-06T19:59:18.423Z,53.67
2022-10-06T20:02:20.523Z,45.75
2022-10-06T20:05:23.027Z,50.50
2022-10-06T20:08:25.103Z,41.00
2022-10-06T20:11:27.683Z,45.00
2022-10-06T20:14:29.893Z,40.00
2022-10-06T20:17:32.146Z,43.25
2022-10-06T20:20:34.231Z,39.50
2022-10-06T20:23:36.572Z,45.75
2022-10-06T20:26:41.108Z,42.75
2022-10-06T20:29:43.615Z,43.75
2022-10-06T20:32:45.727Z,31.25
2022-10-06T20:35:47.947Z,35.00
2022-10-06T20:39:08.602Z,31.50
2022-10-06T20:42:15.222Z,34.75
2022-10-06T20:45:17.626Z,28.00
2022-10-06T20:48:20.181Z,29.50
2022-10-06T20:51:27.536Z,30.50
2022-10-06T20:54:34.754Z,28.50
2022-10-06T20:57:37.172Z,31.50
2022-10-06T21:00:39.510Z,32.50
2022-10-06T21:03:54.678Z,38.50
2022-10-06T21:06:57.277Z,30.75
2022-10-06T21:09:59.361Z,35.25
2022-10-06T21:13:01.668Z,31.00
2022-10-06T21:16:04.554Z,40.00
2022-10-06T21:19:09.181Z,37.50
2022-10-06T21:22:11.342Z,39.33
2022-10-06T21:25:13.978Z,30.00
2022-10-06T21:28:16.139Z,39.33
2022-10-06T21:31:21.062Z,41.67
2022-10-06T21:34:23.076Z,32.33
2022-10-06T21:37:26.590Z,46.00
2022-10-06T21:40:28.622Z,39.33
2022-10-06T21:43:30.862Z,37.00
2022-10-06T21:46:34.341Z,32.33
2022-10-06T21:49:36.654Z,32.67
2022-10-06T21:52:38.661Z,35.00
2022-10-06T21:55:40.923Z,35.00
2022-10-06T21:58:51.253Z,30.67
2022-10-06T22:01:53.707Z,41.67
2022-10-06T22:04:55.783Z,45.00
2022-10-06T22:07:58.058Z,46.67
2022-10-06T22:11:15.019Z,38.33
2022-10-06T22:14:18.841Z,41.67
2022-10-06T22:17:20.949Z,35.33
2022-10-06T22:20:23.380Z,43.00
2022-10-06T22:23:25.384Z,35.67
2022-10-06T22:26:29.195Z,44.67
2022-10-06T22:29:31.272Z,39.33
2022-10-06T22:32:33.527Z,46.67
2022-10-06T22:35:35.530Z,39.00
2022-10-06T22:38:38.302Z,37.67
2022-10-06T22:41:40.611Z,37.33
2022-10-06T22:44:42.876Z,40.67
2022-10-06T22:47:45.344Z,37.67
2022-10-06T22:50:49.190Z,33.67
2022-10-06T22:53:58.180Z,36.33
2022-10-06T22:57:00.669Z,35.67
2022-10-06T23:00:03.073Z,23.00
2022-10-06T23:03:07.289Z,30.33
2022-10-06T23:06:12.344Z,33.67
2022-10-06T23:09:14.689Z,36.67
2022-10-06T23:12:16.805Z,31.67
2022-10-06T23:15:19.107Z,29.67
2022-10-06T23:18:21.140Z,32.00
2022-10-06T23:21:27.417Z,27.67
2022-10-06T23:24:29.694Z,35.00
2022-10-06T23:27:32.022Z,33.33
2022-10-06T23:30:35.956Z,31.67
2022-10-06T23:33:38.880Z,34.33
2022-10-06T23:36:40.894Z,32.33
2022-10-06T23:39:43.234Z,33.67
2022-10-06T23:42:45.289Z,30.33
2022-10-06T23:45:47.908Z,32.00
2022-10-06T23:48:49.998Z,34.67
2022-10-06T23:51:52.573Z,32.00
2022-10-06T23:54:54.561Z,34.33
2022-10-06T23:57:56.842Z,26.00
